Time;durP1;ratioP1;P1;durP2;ratioP2;P2;SDS_P1;SDS_P2;PMS_P1;PMS_P2;Temp;Humidity;BMP_temperature;BMP_pressure;BME280_temperature;BME280_humidity;BME280_pressure;Samples;Min_cycle;Max_cycle;Signal;HPM_P1;HPM_P2
2022/01/03 00:01:25;;;;;;;5.17;3.42;;;;;;;2.79;65.07;99714.41;1647698;86;21076;-71
2022/01/03 00:03:52;;;;;;;6.12;3.60;;;;;;;2.81;65.03;99716.33;1682961;84;21438;-71
2022/01/03 00:06:20;;;;;;;5.55;3.60;;;;;;;2.82;64.94;99712.64;1624800;88;21119;-71
2022/01/03 00:08:47;;;;;;;5.20;3.62;;;;;;;2.85;64.94;99706.13;1652604;85;21017;-71
2022/01/03 00:11:18;;;;;;;5.35;3.58;;;;;;;2.88;64.95;99694.60;1683249;84;21025;-71
2022/01/03 00:13:49;;;;;;;5.80;3.30;;;;;;;2.91;64.95;99698.11;1683855;84;22005;-71
2022/01/03 00:16:16;;;;;;;5.33;3.52;;;;;;;2.94;65.00;99687.10;1682905;84;21046;-71
2022/01/03 00:18:42;;;;;;;5.42;3.15;;;;;;;2.97;64.95;99673.98;1683740;84;22035;-71
2022/01/03 00:21:15;;;;;;;5.70;3.40;;;;;;;2.97;64.94;99670.02;1624760;87;21523;-72
2022/01/03 00:23:51;;;;;;;5.62;3.58;;;;;;;2.98;65.00;99668.46;1652578;86;21084;-71
2022/01/03 00:26:26;;;;;;;5.87;3.47;;;;;;;3.01;65.11;99652.17;1683662;84;21030;-70
2022/01/03 00:29:01;;;;;;;5.03;3.02;;;;;;;3.04;65.21;99657.52;1696962;82;21121;-70
2022/01/03 00:31:37;;;;;;;6.08;3.90;;;;;;;3.07;65.35;99649.14;1709866;82;21074;-70
2022/01/03 00:34:06;;;;;;;5.92;3.55;;;;;;;3.09;65.52;99627.80;1683645;84;21114;-71
2022/01/03 00:36:33;;;;;;;4.78;3.10;;;;;;;3.13;65.77;99621.84;1683887;84;21174;-70
2022/01/03 00:38:59;;;;;;;6.15;3.72;;;;;;;3.16;66.01;99610.83;1683372;84;20982;-70
2022/01/03 00:41:26;;;;;;;6.35;3.85;;;;;;;3.16;66.42;99598.13;1683486;84;21018;-69
2022/01/03 00:43:54;;;;;;;5.83;3.45;;;;;;;3.16;66.72;99606.05;1683690;84;21100;-69
2022/01/03 00:46:21;;;;;;;6.85;4.40;;;;;;;3.17;67.03;99599.75;1683277;84;21615;-69
2022/01/03 00:48:47;;;;;;;7.67;4.33;;;;;;;3.20;67.32;99598.77;1683568;85;21034;-69
2022/01/03 00:51:19;;;;;;;6.15;3.85;;;;;;;3.24;67.60;99585.91;1683024;84;21058;-69
2022/01/03 00:53:42;;;;;;;6.85;4.08;;;;;;;3.26;67.92;99562.75;1682912;84;20978;-70
2022/01/03 00:56:26;;;;;;;5.37;3.70;;;;;;;3.23;68.26;99552.66;1683738;83;21523;-69
2022/01/03 00:59:07;;;;;;;6.58;4.17;;;;;;;3.25;68.67;99565.08;1654718;84;21140;-70
2022/01/03 01:01:37;;;;;;;6.20;4.25;;;;;;;3.23;68.93;99537.62;1683024;83;21532;-69
2022/01/03 01:04:07;;;;;;;6.05;4.22;;;;;;;3.24;69.28;99519.94;1682572;83;21019;-70
2022/01/03 01:06:37;;;;;;;6.65;4.45;;;;;;;3.24;69.58;99500.15;1683635;84;21006;-69
2022/01/03 01:09:07;;;;;;;7.58;4.62;;;;;;;3.23;69.89;99501.20;1647438;86;21543;-70
2022/01/03 01:11:34;;;;;;;6.60;4.15;;;;;;;3.23;70.21;99489.32;1682632;84;21093;-70
2022/01/03 01:14:02;;;;;;;6.42;4.30;;;;;;;3.20;70.58;99482.67;1647344;87;20984;-70
2022/01/03 01:16:29;;;;;;;6.12;4.20;;;;;;;3.20;70.99;99483.19;1683418;84;21015;-70
2022/01/03 01:18:56;;;;;;;6.47;4.47;;;;;;;3.20;71.38;99472.63;1624715;88;21663;-69
2022/01/03 01:21:26;;;;;;;6.53;4.60;;;;;;;3.21;71.60;99464.99;1652485;86;21060;-69
2022/01/03 01:23:57;;;;;;;7.10;4.28;;;;;;;3.26;71.79;99453.23;1683155;84;21160;-70
2022/01/03 01:29:09;;;;;;;6.90;5.20;;;;;;;3.30;72.49;99491.30;1682096;84;20995;-69
2022/01/03 01:31:41;;;;;;;6.58;4.67;;;;;;;3.31;72.84;99445.91;1645912;86;21162;-70
2022/01/03 01:34:08;;;;;;;7.60;5.10;;;;;;;3.35;73.09;99436.48;1679858;84;21558;-69
2022/01/03 01:36:36;;;;;;;8.15;5.62;;;;;;;3.40;73.29;99418.11;1682030;84;21065;-69
2022/01/03 01:39:06;;;;;;;8.00;5.00;;;;;;;3.42;73.58;99409.41;1682018;84;21069;-69
2022/01/03 01:41:38;;;;;;;7.20;5.03;;;;;;;3.44;73.75;99395.47;1681915;84;21148;-69
2022/01/03 01:44:08;;;;;;;7.15;4.75;;;;;;;3.45;73.99;99396.53;1682187;84;21506;-70
2022/01/03 01:46:46;;;;;;;8.10;4.95;;;;;;;3.48;74.26;99403.98;1682319;84;21051;-69
2022/01/03 01:49:18;;;;;;;8.23;4.35;;;;;;;3.48;74.43;99390.78;1682079;84;21073;-69
2022/01/03 01:51:49;;;;;;;7.67;5.05;;;;;;;3.44;74.71;99397.58;1682296;84;21462;-69
2022/01/03 01:54:17;;;;;;;8.08;4.85;;;;;;;3.44;74.89;99387.55;1656754;84;21156;-69
2022/01/03 01:57:17;;;;;;;8.90;4.97;;;;;;;3.47;75.01;99388.39;1682140;84;21025;-68
2022/01/03 02:00:03;;;;;;;7.87;4.95;;;;;;;3.49;75.22;99389.76;1645481;86;21231;-69
2022/01/03 02:02:41;;;;;;;9.15;5.40;;;;;;;3.48;75.52;99368.34;1680759;84;21021;-69
2022/01/03 02:05:38;;;;;;;8.43;5.40;;;;;;;3.51;75.65;99380.27;1670921;84;21525;-69
2022/01/03 02:08:15;;;;;;;7.72;5.35;;;;;;;3.54;75.79;99366.59;1646048;86;21567;-68
2022/01/03 02:10:50;;;;;;;8.88;5.15;;;;;;;3.55;75.95;99362.90;1682004;84;20976;-68
2022/01/03 02:13:22;;;;;;;7.03;5.28;;;;;;;3.55;76.09;99347.06;1657975;84;21675;-68
2022/01/03 02:15:50;;;;;;;7.25;4.72;;;;;;;3.57;76.13;99353.44;1681346;84;21089;-68
2022/01/03 02:18:14;;;;;;;7.25;5.00;;;;;;;3.60;76.24;99340.55;1646188;86;21502;-70
2022/01/03 02:20:42;;;;;;;8.38;5.75;;;;;;;3.66;76.25;99334.84;1682177;84;21477;-69
2022/01/03 02:23:09;;;;;;;7.55;4.92;;;;;;;3.69;76.24;99330.40;1646338;86;21080;-69
2022/01/03 02:25:38;;;;;;;7.97;5.08;;;;;;;3.74;76.20;99318.56;1690623;82;21429;-69
2022/01/03 02:28:05;;;;;;;8.35;5.40;;;;;;;3.76;76.21;99317.81;1675109;84;21602;-68
2022/01/03 02:30:35;;;;;;;8.53;5.67;;;;;;;3.76;76.21;99317.81;1712134;82;21069;-68
2022/01/03 02:33:03;;;;;;;8.95;5.78;;;;;;;3.78;76.26;99309.64;1712282;82;21061;-68
2022/01/03 02:35:36;;;;;;;8.43;5.12;;;;;;;3.79;76.23;99296.20;1712262;82;21449;-68
2022/01/03 02:38:04;;;;;;;7.53;5.45;;;;;;;3.85;76.22;99301.84;1674935;84;21118;-68
2022/01/03 02:40:32;;;;;;;8.25;5.62;;;;;;;3.85;76.23;99314.22;1712062;82;21037;-68
2022/01/03 02:42:58;;;;;;;9.15;5.42;;;;;;;3.80;76.38;99297.00;1675158;84;21036;-68
2022/01/03 02:45:27;;;;;;;8.30;4.83;;;;;;;3.80;76.38;99304.40;1712270;82;20962;-68
2022/01/03 02:48:01;;;;;;;7.28;5.08;;;;;;;3.82;76.45;99290.94;1675036;84;21506;-69
2022/01/03 02:50:31;;;;;;;8.50;5.90;;;;;;;3.82;76.52;99284.33;1684776;83;21547;-69
2022/01/03 02:52:57;;;;;;;7.22;5.37;;;;;;;3.82;76.60;99282.52;1626135;86;21116;-69
2022/01/03 02:55:26;;;;;;;9.33;5.55;;;;;;;3.80;76.63;99255.54;1652652;86;20995;-70
2022/01/03 02:57:58;;;;;;;8.00;5.70;;;;;;;3.83;76.67;99250.30;1683472;84;21124;-70
2022/01/03 03:00:29;;;;;;;7.97;5.42;;;;;;;3.85;76.74;99253.47;1683672;84;21469;-70
2022/01/03 03:02:56;;;;;;;6.92;4.83;;;;;;;3.83;76.83;99235.24;1647650;86;21582;-71
2022/01/03 03:05:23;;;;;;;7.72;5.40;;;;;;;3.88;76.82;99231.36;1683493;84;21086;-70
2022/01/03 03:07:53;;;;;;;7.10;4.70;;;;;;;3.91;76.83;99202.31;1624770;88;21120;-69
2022/01/03 03:10:23;;;;;;;8.80;5.40;;;;;;;3.94;76.88;99209.74;1652601;86;21490;-69
2022/01/03 03:12:52;;;;;;;8.30;5.17;;;;;;;3.95;76.92;99173.05;1683861;84;21128;-69
2022/01/03 03:15:19;;;;;;;8.80;5.37;;;;;;;3.97;77.02;99177.55;1683625;84;21143;-70
2022/01/03 03:17:47;;;;;;;8.70;5.40;;;;;;;4.02;76.99;99169.70;1624746;88;21578;-70
2022/01/03 03:20:18;;;;;;;7.53;5.33;;;;;;;4.05;77.03;99169.70;1652567;86;21087;-70
2022/01/03 03:22:49;;;;;;;8.10;5.65;;;;;;;4.09;77.00;99156.30;1683685;84;21007;-70
2022/01/03 03:25:18;;;;;;;7.47;5.30;;;;;;;4.13;76.98;99195.70;1682749;84;21062;-70
2022/01/03 03:27:49;;;;;;;8.60;5.85;;;;;;;4.12;76.93;99213.41;1682438;84;23189;-72
2022/01/03 03:30:25;;;;;;;;;;;;;;;4.13;76.95;99195.70;1684812;84;20999;-71
2022/01/03 03:32:56;;;;;;;7.12;5.50;;;;;;;4.14;76.97;99183.55;1682149;84;20175;-70
2022/01/03 03:35:23;;;;;;;8.83;5.87;;;;;;;4.12;77.07;99180.91;1646078;86;21103;-69
2022/01/03 03:37:50;;;;;;;8.50;6.08;;;;;;;4.10;77.23;99176.38;1682168;84;21110;-71
2022/01/03 03:40:19;;;;;;;8.78;5.03;;;;;;;4.12;77.24;99167.69;1682268;84;21982;-70
2022/01/03 03:42:47;;;;;;;8.30;5.92;;;;;;;4.17;77.32;99170.37;1682098;84;20970;-70
2022/01/03 03:45:13;;;;;;;8.38;5.78;;;;;;;4.18;77.38;99174.10;1646203;86;21105;-70
2022/01/03 03:47:40;;;;;;;7.62;5.50;;;;;;;4.18;77.44;99174.62;1682182;84;20986;-71
2022/01/03 03:50:08;;;;;;;8.73;5.85;;;;;;;4.22;77.49;99172.55;1676908;84;21484;-69
2022/01/03 03:52:36;;;;;;;8.63;5.80;;;;;;;4.26;77.64;99172.05;1647356;86;21586;-70
2022/01/03 03:55:03;;;;;;;8.95;6.22;;;;;;;4.24;77.69;99161.71;1683730;83;21029;-70
2022/01/03 03:57:30;;;;;;;8.23;5.62;;;;;;;4.27;77.86;99160.42;1647420;85;21024;-70
2022/01/03 03:59:58;;;;;;;9.38;6.30;;;;;;;4.26;78.08;99155.66;1683736;84;21056;-70
2022/01/03 04:02:24;;;;;;;8.93;5.72;;;;;;;4.28;78.17;99150.94;1646679;86;21074;-69
2022/01/03 04:04:52;;;;;;;7.70;5.87;;;;;;;4.30;78.27;99153.31;1683455;84;21598;-70
2022/01/03 04:07:19;;;;;;;9.50;6.37;;;;;;;4.33;78.38;99143.57;1683190;84;20973;-70
2022/01/03 04:09:46;;;;;;;9.25;6.03;;;;;;;4.37;78.44;99139.37;1647492;86;20992;-69
2022/01/03 04:12:12;;;;;;;8.98;6.17;;;;;;;4.40;78.53;99128.30;1682869;84;20998;-70
2022/01/03 04:14:40;;;;;;;8.28;6.15;;;;;;;4.43;78.58;99125.16;1647184;86;21063;-70
2022/01/03 04:17:09;;;;;;;10.35;6.65;;;;;;;4.50;78.64;99120.45;1683838;84;22290;-70
2022/01/03 04:19:36;;;;;;;9.20;5.90;;;;;;;4.56;78.63;99119.98;1646901;86;21032;-70
2022/01/03 04:22:03;;;;;;;8.68;6.60;;;;;;;4.59;78.65;99106.25;1683630;84;21061;-70
2022/01/03 04:24:32;;;;;;;8.75;6.25;;;;;;;4.60;78.67;99100.70;1623396;87;21178;-70
2022/01/03 04:26:58;;;;;;;8.30;5.75;;;;;;;4.65;78.63;99086.73;1651034;86;21040;-71
2022/01/03 04:29:26;;;;;;;10.35;6.95;;;;;;;4.66;78.61;99089.64;1682223;84;21575;-70
2022/01/03 04:31:53;;;;;;;8.73;6.80;;;;;;;4.64;78.67;99083.80;1682015;84;21066;-71
2022/01/03 04:34:20;;;;;;;9.23;6.45;;;;;;;4.64;78.74;99087.77;1646421;86;21075;-71
2022/01/03 04:36:49;;;;;;;9.78;6.25;;;;;;;4.65;78.70;99078.27;1683704;84;21018;-70
2022/01/03 04:39:16;;;;;;;9.80;6.08;;;;;;;4.65;78.69;99070.33;1647128;86;21756;-71
2022/01/03 04:41:43;;;;;;;9.83;6.22;;;;;;;4.60;78.79;99080.86;1683557;84;21465;-70
2022/01/03 04:44:11;;;;;;;9.45;6.95;;;;;;;4.54;79.00;99081.08;1683546;84;21607;-70
2022/01/03 04:46:39;;;;;;;9.28;6.37;;;;;;;4.51;79.15;99084.22;1624551;88;21119;-70
2022/01/03 04:49:07;;;;;;;9.53;6.35;;;;;;;4.51;79.31;99061.25;1652559;86;21066;-70
2022/01/03 04:51:34;;;;;;;10.53;6.70;;;;;;;4.55;79.44;99054.93;1683648;84;21544;-71
2022/01/03 04:54:03;;;;;;;8.78;6.12;;;;;;;4.58;79.48;99055.75;1683750;84;21827;-69
2022/01/03 04:56:29;;;;;;;10.38;6.55;;;;;;;4.58;79.62;99055.75;1647466;86;21129;-70
2022/01/03 04:58:56;;;;;;;9.05;6.37;;;;;;;4.63;79.68;99046.51;1683914;84;21089;-70
2022/01/03 05:01:24;;;;;;;9.83;6.72;;;;;;;4.65;79.68;99045.73;1646685;86;21040;-73
2022/01/03 05:03:51;;;;;;;8.83;6.50;;;;;;;4.68;79.69;99039.94;1683787;84;21061;-70
2022/01/03 05:06:19;;;;;;;8.25;6.22;;;;;;;4.70;79.62;99026.74;1647296;86;21517;-70
2022/01/03 05:08:46;;;;;;;9.13;6.30;;;;;;;4.74;79.60;99027.02;1683749;84;21045;-70
2022/01/03 05:11:14;;;;;;;9.30;6.80;;;;;;;4.77;79.59;99021.72;1647362;86;21011;-70
2022/01/03 05:13:42;;;;;;;10.28;6.78;;;;;;;4.79;79.56;99011.16;1683730;84;21148;-70
2022/01/03 05:16:09;;;;;;;9.90;6.80;;;;;;;4.82;79.48;99001.39;1624880;87;21053;-70
2022/01/03 05:18:37;;;;;;;8.63;6.60;;;;;;;4.85;79.37;98998.23;1653161;86;21509;-69
2022/01/03 05:21:05;;;;;;;9.53;7.00;;;;;;;4.84;79.35;98990.58;1683253;83;20974;-70
2022/01/03 05:23:33;;;;;;;8.88;6.62;;;;;;;4.84;79.35;98988.72;1682340;84;21588;-70
2022/01/03 05:26:00;;;;;;;11.08;7.17;;;;;;;4.87;79.32;98977.63;1645876;86;21496;-70
2022/01/03 05:28:30;;;;;;;9.20;6.80;;;;;;;4.92;79.26;98974.98;1682345;84;20950;-70
2022/01/03 05:30:57;;;;;;;9.28;6.97;;;;;;;4.96;79.20;98979.77;1682308;84;21150;-70
2022/01/03 05:33:25;;;;;;;10.32;6.58;;;;;;;4.96;79.17;98983.20;1623429;87;21088;-70
2022/01/03 05:35:52;;;;;;;9.15;6.70;;;;;;;4.97;79.08;98984.81;1651207;87;21558;-70
2022/01/03 05:38:20;;;;;;;12.13;7.70;;;;;;;4.98;79.02;98993.01;1682307;84;21474;-70
2022/01/03 05:40:47;;;;;;;10.88;7.60;;;;;;;4.99;79.03;98991.95;1682447;84;21014;-70
2022/01/03 05:43:16;;;;;;;11.43;7.37;;;;;;;4.99;79.04;98996.45;1682245;84;21116;-70
2022/01/03 05:45:43;;;;;;;9.63;6.78;;;;;;;5.01;78.99;99003.08;1682049;84;21021;-70
2022/01/03 05:48:12;;;;;;;10.53;7.30;;;;;;;5.07;78.99;99002.05;1646132;86;21546;-69
2022/01/03 05:50:39;;;;;;;11.05;7.47;;;;;;;5.10;78.90;98986.98;1682218;84;21026;-70
2022/01/03 05:53:05;;;;;;;12.10;7.50;;;;;;;5.14;78.87;98991.22;1646110;87;21093;-70
2022/01/03 05:55:32;;;;;;;10.10;7.05;;;;;;;5.17;78.84;98990.70;1682307;84;21162;-69
2022/01/03 05:58:00;;;;;;;9.75;6.53;;;;;;;5.21;78.80;98981.19;1646209;86;21095;-70
2022/01/03 06:00:30;;;;;;;10.20;7.40;;;;;;;5.25;78.80;98982.25;1682377;84;21453;-70
2022/01/03 06:02:58;;;;;;;10.30;7.40;;;;;;;5.30;78.74;98983.60;1682745;84;21560;-70
2022/01/03 06:08:05;;;;;;;11.25;7.92;;;;;;;5.38;78.61;98977.78;1644941;86;21552;-70
2022/01/03 06:10:34;;;;;;;10.75;7.22;;;;;;;5.40;78.53;98980.98;1683532;83;21078;-69
2022/01/03 06:13:02;;;;;;;11.93;7.78;;;;;;;5.43;78.51;98974.88;1645100;86;21103;-70
2022/01/03 06:15:30;;;;;;;10.60;7.20;;;;;;;5.44;78.48;98981.25;1683651;83;20983;-69
2022/01/03 06:17:57;;;;;;;11.30;7.40;;;;;;;5.46;78.41;98980.97;1683834;84;21077;-70
2022/01/03 06:20:25;;;;;;;10.53;7.47;;;;;;;5.47;78.37;98982.59;1659410;84;21166;-70
2022/01/03 06:22:53;;;;;;;10.43;7.25;;;;;;;5.50;78.35;98980.73;1712331;82;21045;-70
2022/01/03 06:25:20;;;;;;;9.68;6.17;;;;;;;5.54;78.30;98985.23;1674989;84;21111;-70
2022/01/03 06:27:48;;;;;;;9.83;6.90;;;;;;;5.57;78.22;98982.60;1712386;82;21021;-70
2022/01/03 06:30:16;;;;;;;12.75;7.67;;;;;;;5.59;78.20;98976.49;1712379;82;21061;-70
2022/01/03 06:32:46;;;;;;;9.18;7.22;;;;;;;5.60;78.09;98967.52;1674903;84;21180;-69
2022/01/03 06:35:12;;;;;;;9.48;6.97;;;;;;;5.61;78.08;98971.20;1712249;82;21101;-70
2022/01/03 06:37:39;;;;;;;9.25;7.05;;;;;;;5.63;78.07;98969.64;1674985;84;20991;-69
2022/01/03 06:40:09;;;;;;;9.43;6.80;;;;;;;5.66;78.03;98959.84;1711362;82;21014;-69
2022/01/03 06:42:37;;;;;;;10.35;6.47;;;;;;;5.69;78.00;98957.96;1712356;82;21025;-69
2022/01/03 06:45:05;;;;;;;8.60;6.50;;;;;;;5.73;77.94;98970.18;1712715;82;21103;-69
2022/01/03 06:47:34;;;;;;;8.85;6.42;;;;;;;5.75;77.89;98961.42;1712199;82;21046;-69
2022/01/03 06:50:01;;;;;;;8.78;6.45;;;;;;;5.80;77.90;98968.84;1708743;82;21635;-70
2022/01/03 06:52:30;;;;;;;11.40;7.22;;;;;;;5.83;77.83;98981.57;1737350;82;21047;-70
2022/01/03 06:54:56;;;;;;;9.83;7.00;;;;;;;5.87;77.75;98976.53;1738308;82;21105;-70
2022/01/03 06:57:24;;;;;;;9.43;6.90;;;;;;;5.92;77.71;98977.05;1738312;82;21149;-70
2022/01/03 06:59:51;;;;;;;9.25;6.95;;;;;;;5.95;77.61;98976.56;1738395;82;21090;-70
2022/01/03 07:02:21;;;;;;;10.98;7.35;;;;;;;5.96;77.55;98976.31;1738476;82;20963;-70
2022/01/03 07:04:48;;;;;;;9.65;6.85;;;;;;;5.96;77.50;98984.27;1738221;82;21066;-70
2022/01/03 07:07:16;;;;;;;9.73;6.92;;;;;;;5.98;77.42;98982.66;1738251;82;21002;-70
2022/01/03 07:09:42;;;;;;;11.38;7.58;;;;;;;5.98;77.43;98981.33;1738103;82;21781;-70
2022/01/03 07:12:09;;;;;;;12.13;7.83;;;;;;;6.01;77.51;98978.16;1738364;82;20998;-70
2022/01/03 07:19:54;;;;;;;10.23;7.00;;;;;;;6.05;77.69;98969.39;1738112;81;20955;-70
2022/01/03 07:22:23;;;;;;;11.12;7.00;;;;;;;6.11;77.80;98966.22;1738615;82;21775;-70
2022/01/03 07:24:51;;;;;;;10.48;6.62;;;;;;;6.15;77.86;98961.97;1737312;82;20960;-69
2022/01/03 07:27:19;;;;;;;9.45;6.33;;;;;;;6.20;77.88;98961.98;1737911;82;21173;-70
2022/01/03 07:29:48;;;;;;;9.65;6.45;;;;;;;6.25;77.92;98953.21;1737993;82;21078;-70
2022/01/03 07:32:15;;;;;;;9.18;6.83;;;;;;;6.28;77.98;98954.79;1738424;82;21077;-70
2022/01/03 07:34:41;;;;;;;11.20;7.25;;;;;;;6.33;78.08;98954.01;1737923;82;21485;-70
2022/01/03 07:37:08;;;;;;;9.93;7.03;;;;;;;6.37;78.07;98947.63;1738278;82;21502;-70
2022/01/03 07:39:35;;;;;;;11.10;7.17;;;;;;;6.44;78.09;98938.33;1738225;82;21558;-70
2022/01/03 07:42:03;;;;;;;9.08;6.35;;;;;;;6.51;78.04;98934.06;1737941;82;20995;-70
2022/01/03 07:44:33;;;;;;;8.98;6.25;;;;;;;6.56;78.03;98921.59;1738005;82;21173;-70
2022/01/03 07:47:00;;;;;;;10.13;6.50;;;;;;;6.63;77.96;98919.97;1737694;82;21111;-70
2022/01/03 07:49:28;;;;;;;8.50;6.08;;;;;;;6.71;77.87;98918.10;1737989;82;21007;-70
2022/01/03 07:51:56;;;;;;;9.28;6.30;;;;;;;6.77;77.77;98913.55;1738048;82;21022;-70
2022/01/03 07:54:23;;;;;;;10.55;6.58;;;;;;;6.82;77.58;98908.23;1738088;82;21015;-70
2022/01/03 07:56:50;;;;;;;9.73;6.53;;;;;;;6.85;77.41;98902.92;1737654;82;21063;-70
2022/01/03 07:59:16;;;;;;;9.58;5.95;;;;;;;6.88;77.23;98903.67;1738114;82;22173;-70
2022/01/03 08:01:44;;;;;;;9.30;6.30;;;;;;;6.91;77.07;98896.50;1737890;82;20976;-70
2022/01/03 08:04:10;;;;;;;8.73;6.30;;;;;;;6.95;77.00;98893.58;1738296;82;21533;-70
2022/01/03 08:06:38;;;;;;;9.88;6.22;;;;;;;7.00;76.92;98901.50;1737065;82;21015;-70
2022/01/03 08:09:06;;;;;;;8.98;6.08;;;;;;;7.03;76.69;98894.31;1738396;82;20967;-70
2022/01/03 08:11:33;;;;;;;9.38;6.33;;;;;;;7.04;76.54;98893.23;1738063;82;21453;-70
2022/01/03 08:13:59;;;;;;;9.38;6.55;;;;;;;7.04;76.47;98894.56;1738018;82;21172;-70
2022/01/03 08:16:27;;;;;;;10.30;7.28;;;;;;;7.05;76.62;98893.52;1738046;82;21067;-70
2022/01/03 08:18:53;;;;;;;9.13;6.75;;;;;;;7.08;76.72;98891.65;1738398;82;21053;-70
2022/01/03 08:21:20;;;;;;;9.18;6.62;;;;;;;7.13;76.79;98885.50;1737428;82;20994;-70
2022/01/03 08:23:47;;;;;;;9.80;6.72;;;;;;;7.19;76.76;98885.73;1738207;82;21156;-70
2022/01/03 08:26:14;;;;;;;11.30;7.05;;;;;;;7.21;76.75;98888.37;1737837;82;21176;-70
2022/01/03 08:28:40;;;;;;;9.65;6.50;;;;;;;7.24;76.79;98887.05;1738026;82;20983;-70
2022/01/03 08:31:07;;;;;;;8.93;6.37;;;;;;;7.29;76.83;98884.34;1738063;82;21007;-70
2022/01/03 08:33:34;;;;;;;9.55;6.33;;;;;;;7.34;76.76;98874.20;1737390;82;21129;-69
2022/01/03 08:36:02;;;;;;;8.83;6.28;;;;;;;7.41;76.79;98868.06;1710505;82;21571;-70
2022/01/03 08:38:28;;;;;;;9.38;6.35;;;;;;;7.51;76.81;98859.48;1738080;82;21048;-70
2022/01/03 08:40:55;;;;;;;10.35;7.00;;;;;;;7.65;76.70;98856.97;1738148;82;21039;-71
2022/01/03 08:43:21;;;;;;;10.05;6.35;;;;;;;7.77;76.52;98861.14;1737811;82;21489;-70
2022/01/03 08:45:48;;;;;;;9.35;5.95;;;;;;;7.88;76.36;98843.47;1738062;82;20970;-70
2022/01/03 08:48:16;;;;;;;8.00;5.40;;;;;;;7.99;75.83;98849.47;1738020;82;40093;-70
2022/01/03 08:50:42;;;;;;;9.05;5.80;;;;;;;8.12;75.45;98843.48;1737925;82;21086;-70
2022/01/03 08:53:11;;;;;;;9.50;5.92;;;;;;;8.25;75.07;98845.22;1738057;82;21069;-70
2022/01/03 08:55:40;;;;;;;7.17;5.20;;;;;;;8.30;74.37;98827.34;1725148;82;21078;-70
2022/01/03 08:58:07;;;;;;;7.60;5.08;;;;;;;8.42;73.78;98830.42;1705503;84;21035;-70
2022/01/03 09:00:34;;;;;;;8.68;5.40;;;;;;;8.50;73.39;98830.87;1672788;85;21159;-70
2022/01/03 09:03:01;;;;;;;8.55;4.97;;;;;;;8.57;72.99;98825.98;1702573;84;21051;-70
2022/01/03 09:05:27;;;;;;;8.08;5.08;;;;;;;8.63;72.66;98823.52;1672972;85;21083;-71
2022/01/03 09:07:56;;;;;;;9.15;6.00;;;;;;;8.71;72.19;98822.07;1712152;82;21074;-70
2022/01/03 09:10:23;;;;;;;8.08;5.20;;;;;;;8.72;71.94;98809.83;1735271;82;21055;-70
2022/01/03 09:12:49;;;;;;;7.60;5.03;;;;;;;8.70;71.74;98796.00;1735018;82;21488;-69
2022/01/03 09:15:17;;;;;;;7.15;5.22;;;;;;;8.74;71.60;98812.97;1734822;82;21526;-70
2022/01/03 09:17:43;;;;;;;7.90;5.53;;;;;;;8.75;71.42;98799.91;1734206;82;21011;-70
2022/01/03 09:20:11;;;;;;;10.30;5.55;;;;;;;8.77;71.25;98792.98;1735152;82;21105;-70
2022/01/03 09:22:42;;;;;;;6.92;4.80;;;;;;;8.76;71.27;98792.73;1734706;82;21517;-70
2022/01/03 09:30:21;;;;;;;9.78;5.72;;;;;;;8.85;71.07;98775.83;1735309;82;21554;-71
2022/01/03 09:32:49;;;;;;;8.68;5.20;;;;;;;8.90;70.87;98766.95;1734709;82;21035;-71
2022/01/03 09:35:16;;;;;;;9.00;5.95;;;;;;;8.95;70.65;98773.55;1735027;82;21136;-69
2022/01/03 09:37:43;;;;;;;8.25;5.75;;;;;;;9.00;70.52;98758.02;1735077;82;22293;-69
2022/01/03 09:40:10;;;;;;;9.05;5.70;;;;;;;9.01;70.32;98759.59;1734651;82;21034;-69
2022/01/03 09:42:39;;;;;;;8.88;5.70;;;;;;;9.03;70.21;98740.92;1734986;82;20986;-69
2022/01/03 09:45:08;;;;;;;8.63;5.42;;;;;;;9.03;70.04;98754.23;1734950;82;21003;-68
2022/01/03 09:47:39;;;;;;;7.92;5.45;;;;;;;9.02;70.03;98747.34;1734963;82;21070;-69
2022/01/03 09:50:06;;;;;;;8.13;5.00;;;;;;;9.07;69.91;98739.25;1734008;82;21125;-69
2022/01/03 09:52:33;;;;;;;8.45;5.40;;;;;;;9.10;69.87;98749.88;1706342;82;21053;-70
2022/01/03 09:55:00;;;;;;;8.83;5.62;;;;;;;9.09;69.68;98737.10;1734796;82;21095;-69
2022/01/03 09:57:27;;;;;;;8.95;5.22;;;;;;;9.10;69.67;98728.02;1734842;82;21015;-70
2022/01/03 09:59:55;;;;;;;8.28;5.10;;;;;;;9.10;69.64;98736.55;1735023;82;21612;-70
2022/01/03 10:02:22;;;;;;;9.98;6.12;;;;;;;9.14;69.61;98734.34;1734984;82;21137;-70
2022/01/03 10:04:48;;;;;;;8.93;5.53;;;;;;;9.16;69.52;98737.52;1734782;82;21533;-70
2022/01/03 10:07:15;;;;;;;7.83;4.85;;;;;;;9.27;69.50;98747.99;1734317;82;21046;-70
2022/01/03 10:09:43;;;;;;;7.45;5.03;;;;;;;9.38;68.97;98732.10;1705530;84;20963;-70
2022/01/03 10:12:12;;;;;;;9.68;5.25;;;;;;;9.52;68.71;98711.58;1705815;84;21430;-69
2022/01/03 10:14:42;;;;;;;8.63;5.20;;;;;;;9.69;68.41;98717.66;1716855;82;20956;-70
2022/01/03 10:17:09;;;;;;;10.20;5.55;;;;;;;9.83;67.82;98713.66;1735121;82;21043;-71
2022/01/03 10:19:59;;;;;;;8.03;5.12;;;;;;;9.91;67.27;98706.86;1735063;82;20987;-70
2022/01/03 10:22:29;;;;;;;8.58;5.20;;;;;;;9.99;66.79;98700.27;1735020;82;21022;-70
2022/01/03 10:24:58;;;;;;;8.03;5.30;;;;;;;10.05;66.63;98705.74;1735018;82;21596;-70
2022/01/03 10:27:44;;;;;;;7.42;5.00;;;;;;;10.07;66.49;98708.91;1735544;82;21129;-70
2022/01/03 10:30:12;;;;;;;7.83;5.08;;;;;;;10.05;66.36;98703.08;1734648;82;21111;-71
2022/01/03 10:32:40;;;;;;;8.48;5.35;;;;;;;10.03;66.22;98690.57;1735062;82;20983;-70
2022/01/03 10:35:17;;;;;;;9.00;5.30;;;;;;;9.98;66.41;98697.36;1706253;82;21055;-71
2022/01/03 10:37:44;;;;;;;8.35;5.55;;;;;;;9.98;66.48;98694.69;1735317;82;20971;-71
2022/01/03 10:40:21;;;;;;;7.78;5.33;;;;;;;10.00;66.44;98668.52;1735182;82;21089;-71
2022/01/03 10:42:48;;;;;;;8.48;5.60;;;;;;;10.03;66.50;98673.78;1735143;82;21003;-70
2022/01/03 10:45:14;;;;;;;7.12;4.75;;;;;;;10.01;66.20;98704.77;1735097;82;21679;-72
2022/01/03 10:47:42;;;;;;;7.35;4.87;;;;;;;10.00;66.31;98675.71;1706224;82;20971;-71
2022/01/03 10:50:17;;;;;;;7.37;4.78;;;;;;;10.03;66.21;98673.78;1734895;82;21046;-71
2022/01/03 10:52:46;;;;;;;8.43;4.95;;;;;;;10.04;66.06;98680.17;1735070;82;22008;-71
2022/01/03 10:55:23;;;;;;;8.55;4.75;;;;;;;10.01;66.05;98675.98;1734930;82;21165;-71
2022/01/03 10:58:05;;;;;;;7.92;4.75;;;;;;;10.02;66.07;98671.66;1735162;82;21032;-70
2022/01/03 11:00:40;;;;;;;8.10;5.45;;;;;;;10.02;66.07;98677.00;1735195;82;21447;-70
2022/01/03 11:03:30;;;;;;;8.43;4.65;;;;;;;9.99;66.10;98677.59;1735109;82;21475;-70
2022/01/03 11:06:08;;;;;;;8.13;5.00;;;;;;;9.94;66.11;98666.27;1735020;82;21012;-70
2022/01/03 11:11:15;;;;;;;8.43;5.05;;;;;;;9.90;66.24;98661.26;1735284;82;20952;-71
2022/01/03 11:13:47;;;;;;;8.85;5.72;;;;;;;9.84;66.43;98663.27;1734183;82;20976;-71
2022/01/03 11:16:14;;;;;;;8.88;4.95;;;;;;;9.85;66.50;98665.62;1733645;82;21438;-71
2022/01/03 11:18:46;;;;;;;7.47;5.00;;;;;;;9.90;66.40;98659.37;1733659;82;21456;-71
2022/01/03 11:21:23;;;;;;;8.55;4.83;;;;;;;9.88;66.37;98647.45;1733420;82;21059;-71
2022/01/03 11:24:10;;;;;;;9.25;5.60;;;;;;;9.90;66.43;98657.26;1733338;82;20963;-71
2022/01/03 11:26:47;;;;;;;7.60;4.65;;;;;;;9.89;66.34;98643.14;1733551;82;21015;-71
2022/01/03 11:29:09;;;;;;;7.37;4.65;;;;;;;9.87;66.34;98650.64;1732785;82;20992;-71
2022/01/03 11:31:40;;;;;;;7.83;5.08;;;;;;;9.82;66.31;98645.42;1733545;82;21050;-71
2022/01/03 11:34:08;;;;;;;8.75;4.95;;;;;;;9.80;66.29;98640.92;1733422;82;21048;-72
2022/01/03 11:36:36;;;;;;;7.20;4.65;;;;;;;9.78;66.28;98630.58;1733366;82;21008;-72
2022/01/03 11:39:12;;;;;;;7.70;4.83;;;;;;;9.81;66.15;98639.86;1733617;82;21023;-70
2022/01/03 11:41:41;;;;;;;7.45;4.85;;;;;;;9.81;66.15;98626.53;1733489;82;21510;-70
2022/01/03 11:44:11;;;;;;;7.12;4.45;;;;;;;9.82;66.14;98630.77;1733535;82;21105;-71
2022/01/03 11:46:37;;;;;;;8.33;4.47;;;;;;;9.78;65.97;98635.13;1733442;82;21007;-70
2022/01/03 11:49:03;;;;;;;7.15;5.05;;;;;;;9.79;65.89;98625.48;1733578;82;21015;-71
2022/01/03 11:51:33;;;;;;;8.03;4.97;;;;;;;9.80;65.78;98613.72;1733437;82;21100;-71
2022/01/03 11:54:00;;;;;;;7.15;4.47;;;;;;;9.79;65.80;98630.03;1733334;82;20959;-72
2022/01/03 11:56:29;;;;;;;7.55;4.70;;;;;;;9.78;65.78;98621.79;1704902;82;22650;-70
2022/01/03 12:04:39;;;;;;;7.62;4.50;;;;;;;9.79;65.53;98613.48;1733161;82;21466;-71
2022/01/03 12:07:15;;;;;;;6.83;4.40;;;;;;;9.76;65.37;98616.74;1734022;82;21037;-72
2022/01/03 12:09:46;;;;;;;6.97;4.50;;;;;;;9.74;65.19;98621.60;1734983;82;21118;-71
2022/01/03 12:12:33;;;;;;;7.25;4.25;;;;;;;9.76;65.14;98611.95;1734294;82;21039;-71
2022/01/03 12:15:03;;;;;;;6.30;3.90;;;;;;;9.74;65.04;98605.61;1733007;82;21086;-71